Nashville International Airport

Airport
ICAO code: 
KBNA
Summary
ICAO Region: 
NAM
Territory: 
Location: 
Nashville, Tennessee,
Coordinates: 
Aerial View: 
36° 7' 53.305" N, 86° 40' 9.716" W
Airport GND: 
Jet Blast
Airport LOS: 
Parallel Runway Operation
Airport WX: 
Cumulonimbus
Metar
Observation
KBNA 040753Z 17003KT 10SM SCT220 13/11 A3006 RMK AO2 SLP173 T01330106
Station
Nashville, Nashville International Airport
Date/Time
2021-12-04 07:53:00
Wind direction
170°
Wind speed
03 kts
Lowest cloud amount
scattered clouds
Temperature
13.3°C
Dew point
10.6°C
Humidity
83%
Weather condition
n/a

Description

Nashville International Airport is a public and military (ANG) use airport in the southeastern section of Nashville, Tennessee.

Climatology

Humid “subtropical” climate (Köppen climate classification Cfa) - characterized by hot, humid summers and cool winters. Significant amounts of precipitation occur in all seasons in most areas. Winter rainfall (and sometimes snowfall) is associated with large storms that the westerlies steer from west to east. Most summer rainfall occurs during thunderstorms and occasional tropical storms (hurricanes).

Runways

Designator Length Width Surface Rops
02L/20R 2348 46 CON Yes/Yes
02R/20L 2438 46 CON Yes/Yes
02C/20C 2439 46 CON Yes/Yes
13/31 3362 46 ASP Yes/Yes
Airport map: 
Aerial View: 

Accidents and Serious Incidents at or in the vicinity of KBNA

SKYbrary Partners:

Safety knowledge contributed by: